Last 7 Days

Abernathy 1 (AB1)

Hourly Data | America/Los_Angeles
as of 1/25/20 10:45 PM PST
Date & Time Temp (°F) RH (%) Dew Pt (°F) Wind Spd (mph) Wind Dir (°) Wind Gust (mph) Latest Rain (In) Daily Rain (In) Daily Min Temp (°F) Daily Max Temp (°F)
1/25/20 - 2200 56.8 90 54.0 3.8 SW | 236 7.7 0.00 0.00 49.2 64.3
1/25/20 - 2100 57.4 88 54.0 3.5 WSW | 237 7.1 0.00 0.00 49.2 64.3
1/25/20 - 2000 57.9 84 53.2 3.8 SW | 225 9.5 0.00 0.00 49.2 64.3
1/25/20 - 1900 57.7 83 52.6 3.1 SSW | 198 6.1 0.00 0.00 49.2 64.3
1/25/20 - 1800 58.1 82 52.8 2.5 SSW | 195 5.5 0.00 0.00 49.2 64.3
1/25/20 - 1700 59.3 80 53.2 2.3 SE | 142 5.7 0.00 0.00 49.2 64.3
1/25/20 - 1600 60.6 78 53.7 3.2 ESE | 112 6.0 0.00 0.00 49.2 64.3
1/25/20 - 1500 62.2 75 54.1 3.8 ESE | 114 9.2 0.00 0.00 49.2 64.3
1/25/20 - 1400 62.6 73 53.7 3.2 SSE | 158 7.5 0.00 0.00 49.2 63.7
1/25/20 - 1300 62.1 73 53.2 2.5 SSE | 148 6.3 0.00 0.00 49.2 63.5
1/25/20 - 1200 60.9 75 52.8 1.8 S | 181 5.7 0.00 0.00 49.2 61.4
1/25/20 - 1100 58.6 81 52.8 2.1 ESE | 112 4.9 0.00 0.00 49.2 60.4
1/25/20 - 1000 55.4 90 52.5 1.2 SSW | 199 3.9 0.00 0.00 49.2 56.6
1/25/20 - 0900 52.6 94 51.0 0.8 NW | 314 2.0 0.00 0.00 49.2 54.2
1/25/20 - 0800 51.1 94 49.5 1.0 WNW | 288 3.2 0.00 0.00 49.2 53.1
1/25/20 - 0700 50.4 94 48.8 1.7 W | 281 4.2 0.00 0.00 49.2 53.1
1/25/20 - 0600 49.7 94 48.0 0.3 W | 274 1.5 0.00 0.00 49.2 53.1
1/25/20 - 0500 50.0 93 47.9 1.1 WNW | 300 2.8 0.00 0.00 49.6 53.1
1/25/20 - 0400 51.5 92 49.1 1.2 SSE | 164 2.7 0.00 0.00 50.7 53.1
1/25/20 - 0300 52.2 91 49.7 0.7 WSW | 251 2.4 0.00 0.00 51.9 53.1
1/25/20 - 0200 52.7 90 49.9 0.6 NW | 320 2.4 0.00 0.00 52.5 53.1
1/25/20 - 0100 52.9 90 49.9 1.3 SSW | 208 3.0 0.00 0.00 52.7 53.1
1/25/20 - 0000 53.1 89 50.0 1.0 WSW | 246 3.7 0.00 0.00 41.0 66.9
1/24/20 - 2300 53.6 88 50.0 2.4 SW | 222 4.8 0.00 0.00 41.0 66.9
1/24/20 - 2200 54.2 86 50.1 1.8 E | 93 4.5 0.00 0.00 41.0 66.9
1/24/20 - 2100 55.4 85 51.0 2.9 ESE | 112 6.7 0.00 0.00 41.0 66.9
1/24/20 - 2000 57.6 81 51.9 2.8 SE | 132 5.6 0.00 0.00 41.0 66.9
1/24/20 - 1900 58.6 77 51.4 1.3 SSE | 147 5.2 0.00 0.00 41.0 66.9
1/24/20 - 1800 60.5 73 52.0 2.5 W | 268 6.7 0.00 0.00 41.0 66.9
1/24/20 - 1700 62.3 71 52.7 4.7 WSW | 256 9.1 0.00 0.00 41.0 66.9
1/24/20 - 1600 64.9 67 53.8 4.4 WSW | 253 8.9 0.00 0.00 41.0 66.9
1/24/20 - 1500 64.5 68 53.5 5.9 WSW | 238 12.4 0.00 0.00 41.0 66.9
1/24/20 - 1400 65.8 64 53.4 5.9 WSW | 249 11.5 0.00 0.00 41.0 66.9
1/24/20 - 1300 63.6 69 53.2 6.1 WSW | 244 11.8 0.00 0.00 41.0 65.1
1/24/20 - 1200 60.8 74 52.5 6.1 SW | 231 12.4 0.00 0.00 41.0 62.8
1/24/20 - 1100 59.1 78 52.1 6.8 SW | 236 12.2 0.00 0.00 41.0 60.1
1/24/20 - 1000 54.8 86 50.7 5.4 SW | 227 9.6 0.00 0.00 41.0 58.0
1/24/20 - 0900 48.6 96 47.5 3.9 WSW | 257 8.6 0.00 0.00 41.0 53.2
1/24/20 - 0800 44.4 96 43.3 1.9 W | 273 4.9 0.00 0.00 41.0 45.4
1/24/20 - 0700 44.1 96 43.1 1.9 SSE | 160 4.6 0.00 0.00 41.0 45.4
1/24/20 - 0600 43.3 96 42.2 1.9 SE | 132 6.4 0.00 0.00 41.0 44.6
1/24/20 - 0500 42.3 96 41.1 2.1 W | 271 4.8 0.00 0.00 41.0 44.6
1/24/20 - 0400 42.2 95 41.0 1.1 NNE | 29 4.8 0.00 0.00 41.0 44.6
1/24/20 - 0300 41.9 94 40.5 0.6 NNW | 342 2.5 0.00 0.00 41.0 44.6
1/24/20 - 0200 43.5 95 42.0 2.2 W | 273 3.6 0.00 0.00 43.0 44.6
1/24/20 - 0100 44.0 94 42.4 1.9 WNW | 290 4.4 0.00 0.00 43.5 44.6
1/24/20 - 0000 44.6 93 42.8 1.0 NW | 316 3.5 0.00 0.00 39.1 58.2
1/23/20 - 2300 46.0 92 43.9 0.8 WNW | 295 3.2 0.00 0.00 39.1 58.2
1/23/20 - 2200 47.8 91 45.4 0.4 WNW | 294 1.8 0.00 0.00 39.1 58.2
1/23/20 - 2100 49.4 90 46.7 0.5 NNW | 327 2.6 0.00 0.00 39.1 58.2
1/23/20 - 2000 51.2 88 47.7 0.9 W | 268 2.7 0.00 0.00 39.1 58.2
1/23/20 - 1900 53.1 84 48.4 0.9 WNW | 285 2.4 0.00 0.00 39.1 58.2
1/23/20 - 1800 55.2 80 49.0 1.8 ESE | 118 5.5 0.00 0.00 39.1 58.2
1/23/20 - 1700 56.9 73 48.4 2.6 SE | 124 5.7 0.00 0.00 39.1 58.2
1/23/20 - 1600 57.9 70 48.2 4.0 E | 96 8.2 0.00 0.00 39.1 58.2
1/23/20 - 1500 57.7 69 47.6 4.3 E | 91 8.1 0.00 0.00 39.1 58.1
1/23/20 - 1400 57.4 70 47.9 3.3 NE | 46 10.2 0.00 0.00 39.1 58.0
1/23/20 - 1300 56.6 77 49.5 2.8 WSW | 240 6.4 0.00 0.00 39.1 57.2
1/23/20 - 1200 53.0 83 47.9 2.8 SW | 217 6.5 0.00 0.00 39.1 55.0
1/23/20 - 1100 50.3 90 47.5 1.5 S | 172 4.0 0.00 0.00 39.1 51.7
1/23/20 - 1000 46.5 96 45.4 0.8 WSW | 254 3.3 0.00 0.00 39.1 47.8
1/23/20 - 0900 43.3 96 42.2 0.7 W | 266 3.2 0.00 0.00 39.1 45.3
1/23/20 - 0800 41.7 96 40.6 0.8 N | 8 2.6 0.00 0.00 39.1 43.3
1/23/20 - 0700 40.5 96 39.3 0.9 WNW | 302 3.6 0.00 0.00 39.1 43.3
1/23/20 - 0600 40.2 95 39.0 0.8 WNW | 289 2.6 0.00 0.00 39.1 43.3
1/23/20 - 0500 40.0 95 38.7 0.3 N | 10 1.8 0.00 0.00 39.1 43.3
1/23/20 - 0400 39.5 95 38.1 0.3 NNW | 337 2.1 0.00 0.00 39.1 43.3
1/23/20 - 0300 39.8 94 38.3 0.2 NW | 317 1.4 0.00 0.00 39.4 43.3
1/23/20 - 0200 41.1 94 39.5 0.4 NW | 318 1.7 0.00 0.00 40.1 43.3
1/23/20 - 0100 42.1 94 40.4 0.5 NNW | 347 1.7 0.00 0.00 41.6 43.3
1/23/20 - 0000 43.0 93 41.2 1.0 NNW | 334 2.5 0.00 0.00 41.4 64.6
1/22/20 - 2300 43.8 92 41.7 0.7 WNW | 292 2.3 0.00 0.00 41.4 64.6
1/22/20 - 2200 45.5 92 43.2 1.1 WNW | 288 2.7 0.00 0.00 41.4 64.6
1/22/20 - 2100 47.3 90 44.4 1.8 NW | 320 5.0 0.00 0.00 41.4 64.6
1/22/20 - 2000 49.9 83 45.0 1.0 NW | 326 3.0 0.00 0.00 41.4 64.6
1/22/20 - 1900 54.4 75 46.8 2.4 ENE | 64 4.6 0.00 0.00 41.4 64.6
1/22/20 - 1800 56.8 71 47.4 2.5 ENE | 74 6.6 0.00 0.00 41.4 64.6
1/22/20 - 1700 60.0 65 48.0 4.6 ENE | 66 8.9 0.00 0.00 41.4 64.6
1/22/20 - 1600 62.9 56 47.1 3.1 ESE | 103 7.5 0.00 0.00 41.4 64.6
1/22/20 - 1500 63.6 53 45.9 2.4 ESE | 108 7.0 0.00 0.00 41.4 64.6
1/22/20 - 1400 62.8 49 43.4 2.0 ENE | 68 6.0 0.00 0.00 41.4 63.9
1/22/20 - 1300 62.0 56 46.1 2.2 ENE | 75 5.2 0.00 0.00 41.4 62.9
1/22/20 - 1200 60.3 61 46.8 3.1 ESE | 114 7.1 0.00 0.00 41.4 61.6
1/22/20 - 1100 57.5 69 47.3 2.6 NE | 47 7.5 0.00 0.00 41.4 59.4
1/22/20 - 1000 51.4 85 47.0 2.2 NNW | 343 5.0 0.00 0.00 41.4 55.1
1/22/20 - 0900 45.7 95 44.4 3.0 NNW | 348 7.8 0.00 0.00 41.4 51.5
1/22/20 - 0800 42.0 96 41.0 1.5 NW | 313 4.6 0.00 0.00 41.4 51.5
1/22/20 - 0700 42.2 96 41.0 1.7 WNW | 303 3.9 0.00 0.00 41.7 51.5
1/22/20 - 0600 43.6 95 42.2 1.2 NW | 315 4.1 0.00 0.00 42.0 51.5
1/22/20 - 0500 45.9 95 44.5 0.7 ENE | 57 2.2 0.00 0.00 44.7 51.5
1/22/20 - 0400 47.5 95 46.1 0.5 NNE | 32 3.2 0.00 0.00 46.8 51.5
1/22/20 - 0300 49.1 94 47.6 1.1 SSW | 208 2.7 0.00 0.00 48.5 51.5
1/22/20 - 0200 50.5 94 48.9 2.2 WSW | 240 5.3 0.00 0.00 49.8 51.5
1/22/20 - 0100 51.2 94 49.6 3.3 SW | 221 7.1 0.00 0.00 50.8 51.5
1/22/20 - 0000 51.6 95 50.1 3.9 SW | 230 10.2 0.00 0.17 35.7 54.1
1/21/20 - 2300 51.6 95 50.2 4.6 SW | 234 9.1 0.00 0.17 35.7 54.1
1/21/20 - 2200 51.7 95 50.4 3.7 WSW | 237 9.2 0.00 0.17 35.7 54.1
1/21/20 - 2100 51.5 95 50.2 3.3 WSW | 243 6.2 0.01 0.17 35.7 54.1
1/21/20 - 2000 51.8 94 50.1 2.2 W | 271 4.4 0.00 0.16 35.7 54.1
1/21/20 - 1900 52.2 94 50.5 2.5 SW | 217 7.0 0.00 0.16 35.7 54.1
1/21/20 - 1800 52.4 94 50.7 2.6 SSW | 202 8.5 0.01 0.16 35.7 54.1
1/21/20 - 1700 53.0 93 51.1 1.7 S | 191 4.9 0.03 0.15 35.7 54.1
1/21/20 - 1600 52.9 92 50.7 1.9 W | 281 7.8 0.07 0.12 35.7 54.1
1/21/20 - 1500 52.9 90 50.0 1.7 NNW | 333 5.7 0.01 0.05 35.7 54.1
1/21/20 - 1400 53.6 84 48.8 1.4 WSW | 251 3.6 0.01 0.04 35.7 54.1
1/21/20 - 1300 53.0 83 48.0 0.7 NW | 310 3.3 0.00 0.03 35.7 53.7
1/21/20 - 1200 51.7 85 47.3 0.7 N | 351 2.5 0.00 0.03 35.7 52.9
1/21/20 - 1100 49.5 90 46.8 1.3 NNW | 337 3.3 0.00 0.03 35.7 50.8
1/21/20 - 1000 47.5 94 46.1 2.3 NNW | 345 5.3 0.00 0.03 35.7 48.4
1/21/20 - 0900 45.2 96 44.2 1.8 NW | 310 4.5 0.00 0.03 35.7 46.6
1/21/20 - 0800 43.8 96 42.6 1.6 NE | 41 3.4 0.01 0.03 35.7 44.1
1/21/20 - 0700 43.2 96 42.1 1.1 WNW | 287 2.6 0.02 0.02 35.7 43.9
1/21/20 - 0600 42.4 96 41.2 1.0 NNW | 341 2.5 0.00 0.00 35.7 42.9
1/21/20 - 0500 40.9 95 39.6 1.4 NNW | 330 3.6 0.00 0.00 35.7 41.3
1/21/20 - 0400 39.9 95 38.6 1.2 E | 84 2.8 0.00 0.00 35.7 40.7
1/21/20 - 0300 37.6 94 36.2 0.9 NNW | 329 3.1 0.00 0.00 35.7 38.6
1/21/20 - 0200 36.2 94 34.5 0.9 W | 279 3.1 0.00 0.00 35.7 38.2
1/21/20 - 0100 37.1 93 35.2 0.9 WNW | 283 2.1 0.00 0.00 36.4 38.2
1/21/20 - 0000 38.4 92 36.4 0.8 NW | 312 3.6 0.00 0.00 37.6 53.0
1/20/20 - 2300 40.7 91 38.3 0.7 NW | 308 3.1 0.00 0.00 39.4 53.0
1/20/20 - 2200 43.1 90 40.4 1.8 WSW | 245 4.0 0.00 0.00 39.4 53.0
1/20/20 - 2100 45.9 86 41.9 1.5 WNW | 287 4.2 0.00 0.00 39.4 53.0
1/20/20 - 2000 46.6 84 42.2 1.8 SSE | 168 5.2 0.00 0.00 39.4 53.0
1/20/20 - 1900 47.6 80 41.9 0.8 NW | 306 3.0 0.00 0.00 39.4 53.0
1/20/20 - 1800 49.9 76 42.7 1.7 SSW | 196 4.3 0.00 0.00 39.4 53.0
1/20/20 - 1700 51.3 73 43.1 1.9 S | 182 4.4 0.00 0.00 39.4 53.0
1/20/20 - 1600 51.8 73 43.3 3.1 S | 172 6.0 0.00 0.00 39.4 53.0
1/20/20 - 1500 52.4 71 43.3 1.7 SW | 225 4.0 0.00 0.00 39.4 52.9
1/20/20 - 1400 49.8 79 43.7 1.0 WSW | 248 4.9 0.00 0.00 39.4 51.8
1/20/20 - 1300 47.5 84 43.0 2.0 WNW | 297 4.6 0.00 0.00 39.4 48.3
1/20/20 - 1200 45.3 89 42.3 1.7 SSW | 198 5.5 0.00 0.00 39.4 46.5
1/20/20 - 1100 43.3 93 41.3 1.6 NNW | 348 3.5 0.00 0.00 39.4 44.1
1/20/20 - 1000 42.3 94 40.8 1.6 S | 176 5.0 0.00 0.00 39.4 42.6
1/20/20 - 0900 41.3 95 40.0 1.1 S | 181 4.4 0.00 0.00 39.4 42.0
1/20/20 - 0800 40.8 95 39.5 1.3 SSE | 158 5.8 0.00 0.00 39.4 41.2
1/20/20 - 0700 40.6 95 39.3 1.4 WSW | 247 5.3 0.00 0.00 39.4 41.2
1/20/20 - 0600 40.8 96 39.7 1.4 S | 186 4.3 0.00 0.00 39.4 41.2
1/20/20 - 0500 40.1 95 38.8 1.6 N | 350 3.8 0.00 0.00 39.4 40.6
1/20/20 - 0400 39.8 95 38.5 1.4 NE | 45 4.0 0.00 0.00 39.5 40.6
1/20/20 - 0300 40.3 95 38.9 1.4 W | 281 3.9 0.00 0.00 39.8 40.6
1/20/20 - 0200 40.3 95 38.9 1.9 NNW | 327 4.5 0.00 0.00 40.0 40.6
1/20/20 - 0100 40.2 94 38.7 1.3 NNW | 337 3.5 0.00 0.00 40.0 40.4
1/20/20 - 0000 40.6 94 39.2 1.6 ENE | 68 4.1 0.00 0.00 35.4 48.1
1/19/20 - 2300 39.9 94 38.3 1.1 NE | 47 3.3 0.00 0.00 35.4 48.1
1/19/20 - 2200 40.0 93 38.2 0.8 N | 9 2.0 0.00 0.00 35.4 48.1
1/19/20 - 2100 40.5 93 38.6 1.6 NNW | 348 3.9 0.00 0.00 35.4 48.1
1/19/20 - 2000 41.4 92 39.1 1.7 NE | 40 4.1 0.00 0.00 35.4 48.1
1/19/20 - 1900 42.2 91 39.7 3.4 ESE | 108 7.5 0.00 0.00 35.4 48.1
1/19/20 - 1800 43.2 90 40.3 4.4 ESE | 105 8.6 0.00 0.00 35.4 48.1
1/19/20 - 1700 44.8 86 40.9 4.9 ESE | 109 9.9 0.00 0.00 35.4 48.1
1/19/20 - 1600 46.5 83 41.7 4.9 E | 100 10.3 0.00 0.00 35.4 48.1
1/19/20 - 1500 47.2 82 41.8 6.3 E | 97 11.2 0.00 0.00 35.4 48.1
1/19/20 - 1400 47.6 80 41.8 7.3 E | 98 14.3 0.00 0.00 35.4 48.1
1/19/20 - 1300 46.9 81 41.5 7.9 E | 94 13.9 0.00 0.00 35.4 47.5
1/19/20 - 1200 45.8 84 41.2 9.3 E | 93 16.1 0.00 0.00 35.4 46.8
1/19/20 - 1100 43.1 91 40.7 9.1 E | 91 17.6 0.00 0.00 35.4 44.9
1/19/20 - 1000 40.4 96 39.4 6.4 E | 87 12.5 0.00 0.00 35.4 41.5
1/19/20 - 0900 39.4 96 38.3 4.2 ENE | 72 8.6 0.00 0.00 35.4 41.4
1/19/20 - 0800 37.9 95 36.6 2.9 E | 80 6.5 0.00 0.00 35.4 41.4
1/19/20 - 0700 36.9 93 35.1 2.8 ESE | 117 9.6 0.00 0.00 35.4 41.4
1/19/20 - 0600 37.1 91 34.8 1.1 S | 184 2.5 0.00 0.00 35.4 41.4
1/19/20 - 0500 38.3 88 35.1 1.7 WSW | 245 5.5 0.00 0.00 35.4 41.4
1/19/20 - 0400 37.5 93 35.7 2.0 ENE | 58 7.2 0.00 0.00 35.4 41.3
1/19/20 - 0300 37.1 93 35.3 1.1 NNW | 332 2.8 0.00 0.00 36.5 40.2
1/19/20 - 0200 38.2 93 36.3 0.9 NNW | 348 4.2 0.00 0.00 37.6 40.2
1/19/20 - 0100 39.6 92 37.6 1.2 N | 359 3.2 0.00 0.00 39.2 40.2
1/19/20 - 0000 40.3 91 38.0 1.1 NNW | 328 3.0 0.00 0.00 32.4 56.8
1/18/20 - 2300 41.4 90 38.8 1.3 NNE | 19 3.7 0.00 0.00 32.4 56.8
Max 65.8 96 54.1 9.3 - 17.6 0.07 0.17 52.7 66.9
Avg 48.7 87 44.8 2.2 - 5.4 0.00 - - -
Min 36.2 49 34.5 0.2 - 1.4 0.00 0.00 32.4 38.2
Total - - - - - - 0.17 - - -
Tip: Bookmark this page for easy future reference